Elettra — H9AK — position and weather

sailwx.info

Track history (hours):
 
Tides and Currents Weather Stations Pressure Air Temp Water Temp Dewpoint Dewpoint Depression Visibility Wind Speed Wind Dir Waves Ship Positions

Elettra

Last reported at 2017-Aug-26 19:36 UTC. Time now 2017-Sep-22 04:46 UTC.
Position S 27°43' E 153°52'.
Warning: this ship's position is 26 days out of date.

Length 254 m; draft 13.5 m.

Type: Cargo ship. MMSI: 371188000.

Date/timePositionNaut miles runAvg speedWind from/ knotsBaromVisibWave heightAir tempDewpointWater temp
2017-Aug-26 19:36S 27°43' E 153°52'1 9.9
2017-Aug-26 19:30S 27°44' E 153°52'5 9.9
2017-Aug-26 18:58S 27°50' E 153°52'5 9.8
2017-Aug-26 18:30S 27°54' E 153°52'5 9.7
2017-Aug-26 18:00S 27°59' E 153°52'5 9.6
2017-Aug-26 17:30S 28°04' E 153°52'5 9.5
2017-Aug-26 17:00S 28°08' E 153°52'5 9.7
2017-Aug-26 16:30S 28°13' E 153°52'5 9.9
2017-Aug-26 16:00S 28°18' E 153°52'510.0
2017-Aug-26 15:30S 28°23' E 153°52'5 9.9
2017-Aug-26 15:00S 28°28' E 153°52'24410.3
2017-Aug-25 15:13S 32°25' E 152°44'310.1
2017-Aug-25 14:55S 32°28' E 152°42'910.3
2017-Aug-25 14:00S 32°37' E 152°39'510.2
2017-Aug-25 13:30S 32°42' E 152°37'5 9.3
2017-Aug-25 13:00S 32°44' E 152°32'5 9.3
2017-Aug-25 12:30S 32°46' E 152°27'5 9.3
2017-Aug-25 12:01S 32°48' E 152°22'5 9.3
2017-Aug-25 11:30S 32°51' E 152°17'5 9.1
2017-Aug-25 11:00S 32°52' E 152°13'5 9.0
2017-Aug-25 10:30S 32°54' E 152°08'4 9.0
2017-Aug-25 10:00S 32°56' E 152°03'4 8.8
2017-Aug-25 09:31S 32°57' E 151°58'4 8.8
2017-Aug-25 09:00S 32°60' E 151°53'3 5.2
2017-Aug-25 08:30S 32°58' E 151°51'4 8.0
2017-Aug-25 08:01S 32°55' E 151°49'2 3.7
2017-Aug-25 07:31S 32°54' E 151°46'2 2.9
2017-Aug-25 06:59S 32°53' E 151°45'0 0.1
2017-Aug-25 05:11S 32°53' E 151°45'0 0.0
2017-Aug-25 04:41S 32°53' E 151°45'0 0.0
2017-Aug-25 04:20S 32°53' E 151°45'0 0.0
2017-Aug-24 23:32S 32°53' E 151°45'0 0.0
2017-Aug-24 23:26S 32°53' E 151°45'0 0.0
2017-Aug-24 18:59S 32°53' E 151°45'0 0.0
2017-Aug-24 16:17S 32°53' E 151°45'0 0.0
2017-Aug-24 15:53S 32°53' E 151°45'0 0.0
2017-Aug-24 03:48S 32°53' E 151°45'0 1.0
2017-Aug-24 03:30S 32°53' E 151°46'1 2.9
2017-Aug-24 03:00S 32°55' E 151°46'3 5.5
2017-Aug-24 02:30S 32°55' E 151°49'4 8.8
2017-Aug-24 02:00S 32°59' E 151°52'3 5.4
2017-Aug-24 01:30S 32°58' E 151°55'3 6.8
2017-Aug-24 01:00S 32°57' E 151°59'612.7
2017-Aug-24 00:30S 32°56' E 152°06'612.6
2017-Aug-24 00:00S 32°55' E 152°14'612.4
2017-Aug-23 23:30S 32°52' E 152°20'612.3
2017-Aug-23 23:00S 32°49' E 152°26'612.2
2017-Aug-23 22:30S 32°46' E 152°33'612.0
2017-Aug-23 22:00S 32°43' E 152°39'611.8
2017-Aug-23 21:30S 32°40' E 152°45'612.5
2017-Aug-23 21:00S 32°34' E 152°47'612.4
2017-Aug-23 20:30S 32°28' E 152°48'712.5
2017-Aug-23 19:59S 32°22' E 152°51'4813.3
2017-Aug-23 16:22S 31°35' E 153°05'514.2
2017-Aug-23 16:00S 31°30' E 153°06'20913.4
2017-Aug-23 00:27S 28°05' E 153°50'1513.8
2017-Aug-22 23:20S 27°49' E 153°51'513.9
2017-Aug-22 22:57S 27°44' E 153°51'4013.9
2017-Aug-22 20:05S 27°04' E 153°52'113.8
2017-Aug-22 20:00S 27°03' E 153°52'  
Track history (hours):
 
Tides and Currents Weather Stations Pressure Air Temp Water Temp Dewpoint Dewpoint Depression Visibility Wind Speed Wind Dir Waves Ship Positions

Elettra

Last reported at 2017-Aug-26 19:36 UTC. Time now 2017-Sep-22 04:46 UTC.
Position S 27°43' E 153°52'.
Warning: this ship's position is 26 days out of date.

Length 254 m; draft 13.5 m.

Type: Cargo ship. MMSI: 371188000.

Date/timePositionNaut miles runAvg speedWind from/ knotsBaromVisibWave heightAir tempDewpointWater temp
2017-Aug-26 19:36S 27°43' E 153°52'1 9.9
2017-Aug-26 19:30S 27°44' E 153°52'5 9.9
2017-Aug-26 18:58S 27°50' E 153°52'5 9.8
2017-Aug-26 18:30S 27°54' E 153°52'5 9.7
2017-Aug-26 18:00S 27°59' E 153°52'5 9.6
2017-Aug-26 17:30S 28°04' E 153°52'5 9.5
2017-Aug-26 17:00S 28°08' E 153°52'5 9.7
2017-Aug-26 16:30S 28°13' E 153°52'5 9.9
2017-Aug-26 16:00S 28°18' E 153°52'510.0
2017-Aug-26 15:30S 28°23' E 153°52'5 9.9
2017-Aug-26 15:00S 28°28' E 153°52'24410.3
2017-Aug-25 15:13S 32°25' E 152°44'310.1
2017-Aug-25 14:55S 32°28' E 152°42'910.3
2017-Aug-25 14:00S 32°37' E 152°39'510.2
2017-Aug-25 13:30S 32°42' E 152°37'5 9.3
2017-Aug-25 13:00S 32°44' E 152°32'5 9.3
2017-Aug-25 12:30S 32°46' E 152°27'5 9.3
2017-Aug-25 12:01S 32°48' E 152°22'5 9.3
2017-Aug-25 11:30S 32°51' E 152°17'5 9.1
2017-Aug-25 11:00S 32°52' E 152°13'5 9.0
2017-Aug-25 10:30S 32°54' E 152°08'4 9.0
2017-Aug-25 10:00S 32°56' E 152°03'4 8.8
2017-Aug-25 09:31S 32°57' E 151°58'4 8.8
2017-Aug-25 09:00S 32°60' E 151°53'3 5.2
2017-Aug-25 08:30S 32°58' E 151°51'4 8.0
2017-Aug-25 08:01S 32°55' E 151°49'2 3.7
2017-Aug-25 07:31S 32°54' E 151°46'2 2.9
2017-Aug-25 06:59S 32°53' E 151°45'0 0.1
2017-Aug-25 05:11S 32°53' E 151°45'0 0.0
2017-Aug-25 04:41S 32°53' E 151°45'0 0.0
2017-Aug-25 04:20S 32°53' E 151°45'0 0.0
2017-Aug-24 23:32S 32°53' E 151°45'0 0.0
2017-Aug-24 23:26S 32°53' E 151°45'0 0.0
2017-Aug-24 18:59S 32°53' E 151°45'0 0.0
2017-Aug-24 16:17S 32°53' E 151°45'0 0.0
2017-Aug-24 15:53S 32°53' E 151°45'0 0.0
2017-Aug-24 03:48S 32°53' E 151°45'0 1.0
2017-Aug-24 03:30S 32°53' E 151°46'1 2.9
2017-Aug-24 03:00S 32°55' E 151°46'3 5.5
2017-Aug-24 02:30S 32°55' E 151°49'4 8.8
2017-Aug-24 02:00S 32°59' E 151°52'3 5.4
2017-Aug-24 01:30S 32°58' E 151°55'3 6.8
2017-Aug-24 01:00S 32°57' E 151°59'612.7
2017-Aug-24 00:30S 32°56' E 152°06'612.6
2017-Aug-24 00:00S 32°55' E 152°14'612.4
2017-Aug-23 23:30S 32°52' E 152°20'612.3
2017-Aug-23 23:00S 32°49' E 152°26'612.2
2017-Aug-23 22:30S 32°46' E 152°33'612.0
2017-Aug-23 22:00S 32°43' E 152°39'611.8
2017-Aug-23 21:30S 32°40' E 152°45'612.5
2017-Aug-23 21:00S 32°34' E 152°47'612.4
2017-Aug-23 20:30S 32°28' E 152°48'712.5
2017-Aug-23 19:59S 32°22' E 152°51'4813.3
2017-Aug-23 16:22S 31°35' E 153°05'514.2
2017-Aug-23 16:00S 31°30' E 153°06'20913.4
2017-Aug-23 00:27S 28°05' E 153°50'1513.8
2017-Aug-22 23:20S 27°49' E 153°51'513.9
2017-Aug-22 22:57S 27°44' E 153°51'4013.9
2017-Aug-22 20:05S 27°04' E 153°52'113.8
2017-Aug-22 20:00S 27°03' E 153°52'  

Dump ship's entire track history